Time;durP1;ratioP1;P1;durP2;ratioP2;P2;SDS_P1;SDS_P2;PMS_P1;PMS_P2;Temp;Humidity;BMP_temperature;BMP_pressure;BME280_temperature;BME280_humidity;BME280_pressure;Samples;Min_cycle;Max_cycle;Signal;HPM_P1;HPM_P2
2023/01/14 18:10:09;;;;;;;;;;;;;;;;;;5485151;23;19999;-84
2023/01/14 18:12:41;;;;;;;;;;;;;;;;;;4866680;29;19952;-83
2023/01/14 18:15:10;;;;;;;;;;;;;;;;;;4858633;29;20387;-82
2023/01/14 18:17:36;;;;;;;;;;;;;;;;;;4859959;29;19924;-83
2023/01/14 18:20:02;;;;;;;;;;;;;;;;;;4846070;29;19920;-83
2023/01/14 18:22:31;;;;;;;;;;;;;;;;;;4848073;29;19945;-83
2023/01/14 18:24:57;;;;;;;;;;;;;;;;;;4876410;29;19916;-82
2023/01/14 18:27:24;;;;;;;;;;;;;;;;;;4876240;29;19971;-83
2023/01/14 18:29:50;;;;;;;;;;;;;;;;;;4881233;29;19981;-83
2023/01/14 18:32:17;;;;;;;;;;;;;;;;;;4866702;29;20376;-80
2023/01/14 18:34:43;;;;;;;;;;;;;;;;;;4863212;29;19916;-83
2023/01/14 18:37:08;;;;;;;;;;;;;;;;;;4867160;29;19945;-82
2023/01/14 18:39:36;;;;;;;;;;;;;;;;;;4884190;29;19913;-83
2023/01/14 18:42:02;;;;;;;;;;;;;;;;;;4867941;29;19927;-82
2023/01/14 18:44:28;;;;;;;;;;;;;;;;;;4866833;29;19916;-84
2023/01/14 18:46:54;;;;;;;;;;;;;;;;;;4835890;29;19923;-83
2023/01/14 18:49:21;;;;;;;;;;;;;;;;;;4851429;29;19963;-82
2023/01/14 18:51:47;;;;;;;;;;;;;;;;;;4857154;29;19912;-82
2023/01/14 18:54:13;;;;;;;;;;;;;;;;;;4872767;29;19916;-83
2023/01/14 18:56:42;;;;;;;;;;;;;;;;;;4871516;29;19932;-82
2023/01/14 18:59:11;;;;;;;;;;;;;;;;;;4841110;29;20384;-83
2023/01/14 19:01:37;;;;;;;;;;;;;;;;;;4878461;29;19917;-83
2023/01/14 19:04:06;;;;;;;;;;;;;;;;;;4882945;29;19928;-84
2023/01/14 19:06:32;;;;;;;;;;;;;;;;;;4885425;29;19915;-84
2023/01/14 19:08:59;;;;;;;;;;;;;;;;;;4868575;29;19980;-84
2023/01/14 19:14:13;;;;;;;;;;;;;;;;;;4866530;29;19916;-83
2023/01/14 19:16:42;;;;;;;;;;;;;;;;;;4868191;29;19920;-83
2023/01/14 19:19:08;;;;;;;;;;;;;;;;;;4868234;29;19916;-83
2023/01/14 19:21:36;;;;;;;;;;;;;;;;;;4866936;29;19923;-83
2023/01/14 19:24:02;;;;;;;;;;;;;;;;;;4865962;29;19952;-82
2023/01/14 19:26:29;;;;;;;;;;;;;;;;;;4883347;29;19923;-83
2023/01/14 19:28:55;;;;;;;;;;;;;;;;;;4883828;29;19958;-82
2023/01/14 19:31:21;;;;;;;;;;;;;;;;;;4884747;29;19908;-83
2023/01/14 19:33:54;;;;;;;;;;;;;;;;;;4884812;29;19905;-84
2023/01/14 19:36:20;;;;;;;;;;;;;;;;;;4868760;29;19923;-84
2023/01/14 19:38:46;;;;;;;;;;;;;;;;;;4885321;29;19904;-85
2023/01/14 19:41:13;;;;;;;;;;;;;;;;;;4884681;29;19920;-85
2023/01/14 19:43:39;;;;;;;;;;;;;;;;;;4884689;29;19913;-84
2023/01/14 19:46:05;;;;;;;;;;;;;;;;;;4885516;29;19936;-82
2023/01/14 19:48:34;;;;;;;;;;;;;;;;;;4869960;29;19933;-84
2023/01/14 19:51:00;;;;;;;;;;;;;;;;;;4869794;29;19920;-84
2023/01/14 19:53:30;;;;;;;;;;;;;;;;;;4884805;29;19920;-84
2023/01/14 19:55:59;;;;;;;;;;;;;;;;;;4885616;29;19905;-84
2023/01/14 19:58:30;;;;;;;;;;;;;;;;;;4884399;29;19904;-84
2023/01/14 20:00:56;;;;;;;;;;;;;;;;;;4881734;29;19904;-84
2023/01/14 20:03:22;;;;;;;;;;;;;;;;;;4883265;29;19924;-85
2023/01/14 20:05:49;;;;;;;;;;;;;;;;;;4868519;29;19908;-85
2023/01/14 20:08:17;;;;;;;;;;;;;;;;;;4870039;29;19926;-85
2023/01/14 20:10:43;;;;;;;;;;;;;;;;;;4881686;29;19920;-85
2023/01/14 20:13:14;;;;;;;;;;;;;;;;;;4864237;29;19988;-84
2023/01/14 20:15:44;;;;;;;;;;;;;;;;;;4879580;29;19916;-84
2023/01/14 20:18:10;;;;;;;;;;;;;;;;;;4865647;29;19980;-84
2023/01/14 20:20:37;;;;;;;;;;;;;;;;;;4881289;29;19928;-85
2023/01/14 20:23:07;;;;;;;;;;;;;;;;;;4850992;29;19927;-85
2023/01/14 20:25:34;;;;;;;;;;;;;;;;;;5043012;23;19912;-84
2023/01/14 21:54:41;;;;;;;;;;;;;;;;;;5922815;23;19927;-83
2023/01/14 21:57:06;;;;;;;;;;;;;;;;;;5678291;23;19920;-84
2023/01/14 22:13:07;;;;;;;;;;;;;;;;;;5734088;23;20026;-86
2023/01/14 22:18:23;;;;;;;;;;;;;;;;;;5845990;23;19944;-85
